createdAt,value
2018-07-13T00:00:04.277Z,21.69
2018-07-13T00:01:04.278Z,21.65
2018-07-13T00:02:04.558Z,21.53
2018-07-13T00:03:04.650Z,21.50
2018-07-13T00:04:05.471Z,21.46
2018-07-13T00:05:04.907Z,21.49
2018-07-13T00:06:05.990Z,21.47
2018-07-13T00:07:05.312Z,21.44
2018-07-13T00:08:05.533Z,21.47
2018-07-13T00:09:05.749Z,21.44
2018-07-13T00:10:06.475Z,21.43
2018-07-13T00:11:06.062Z,21.46
2018-07-13T00:12:06.092Z,21.53
2018-07-13T00:13:06.626Z,21.54
2018-07-13T00:14:06.384Z,21.59
2018-07-13T00:15:06.575Z,21.64
2018-07-13T00:16:06.775Z,21.64
2018-07-13T00:17:07.021Z,21.56
2018-07-13T00:18:07.055Z,21.61
2018-07-13T00:19:07.992Z,21.59
2018-07-13T00:20:07.381Z,21.52
2018-07-13T00:21:07.647Z,21.43
2018-07-13T00:22:07.703Z,21.43
2018-07-13T00:23:07.874Z,21.44
2018-07-13T00:24:08.049Z,21.31
2018-07-13T00:25:08.292Z,21.38
2018-07-13T00:26:08.350Z,21.34
2018-07-13T00:27:08.621Z,21.31
2018-07-13T00:28:09.486Z,21.32
2018-07-13T00:29:09.861Z,21.29
2018-07-13T00:30:09.035Z,21.29
2018-07-13T00:31:09.267Z,21.37
2018-07-13T00:32:09.318Z,21.42
2018-07-13T00:33:09.592Z,21.31
2018-07-13T00:34:09.656Z,21.40
2018-07-13T00:35:09.947Z,21.34
2018-07-13T00:36:09.956Z,21.34
2018-07-13T00:37:10.131Z,21.31
2018-07-13T00:38:10.979Z,21.32
2018-07-13T00:39:10.592Z,21.46
2018-07-13T00:40:10.599Z,21.47
2018-07-13T00:41:10.782Z,21.44
2018-07-13T00:42:10.948Z,21.46
2018-07-13T00:43:11.206Z,21.40
2018-07-13T00:44:11.257Z,21.37
2018-07-13T00:45:11.523Z,21.32
2018-07-13T00:46:11.592Z,21.35
2018-07-13T00:47:11.855Z,21.25
2018-07-13T00:48:11.884Z,21.19
2018-07-13T00:49:12.185Z,21.13
2018-07-13T00:50:12.211Z,21.12
2018-07-13T00:51:13.410Z,21.13
2018-07-13T00:52:12.585Z,21.07
2018-07-13T00:53:12.826Z,21.10
2018-07-13T00:54:12.850Z,21.09
2018-07-13T00:55:13.131Z,21.04
2018-07-13T00:56:13.200Z,21.09
2018-07-13T00:57:13.460Z,20.92
2018-07-13T00:58:13.559Z,20.87
2018-07-13T00:59:13.776Z,20.85
2018-07-13T01:00:13.840Z,20.95
2018-07-13T01:01:14.103Z,20.94
2018-07-13T01:02:14.171Z,20.82
2018-07-13T01:03:14.436Z,20.88
2018-07-13T01:04:14.992Z,20.95
2018-07-13T01:05:14.750Z,20.94
2018-07-13T01:06:14.819Z,21.07
2018-07-13T01:07:15.080Z,21.01
2018-07-13T01:08:15.133Z,21.01
2018-07-13T01:09:15.406Z,21.03
2018-07-13T01:10:15.449Z,21.07
2018-07-13T01:11:15.737Z,20.95
2018-07-13T01:12:15.769Z,20.97
2018-07-13T01:13:16.032Z,20.92
2018-07-13T01:14:16.059Z,20.98
2018-07-13T01:15:16.370Z,21.01
2018-07-13T01:16:16.417Z,21.03
2018-07-13T01:17:17.494Z,21.04
2018-07-13T01:18:16.748Z,21.01
2018-07-13T01:19:17.005Z,20.95
2018-07-13T01:20:17.026Z,21.03
2018-07-13T01:21:17.323Z,20.98
2018-07-13T01:22:17.996Z,20.82
2018-07-13T01:23:18.519Z,20.79
2018-07-13T01:24:18.502Z,20.80
2018-07-13T01:25:18.076Z,20.76
2018-07-13T01:26:18.099Z,20.79
2018-07-13T01:27:18.995Z,20.70
2018-07-13T01:28:18.445Z,20.74
2018-07-13T01:29:18.722Z,20.55
2018-07-13T01:30:18.770Z,20.62
2018-07-13T01:31:20.043Z,20.48
2018-07-13T01:32:19.054Z,20.50
2018-07-13T01:33:19.249Z,20.57
2018-07-13T01:34:19.421Z,20.51
2018-07-13T01:35:19.775Z,20.51
2018-07-13T01:36:19.694Z,20.57
2018-07-13T01:37:19.999Z,20.58
2018-07-13T01:38:20.050Z,20.57
2018-07-13T01:39:20.320Z,20.57
2018-07-13T01:40:20.372Z,20.54
2018-07-13T01:41:20.639Z,20.57
2018-07-13T01:42:20.685Z,20.57
2018-07-13T01:43:21.063Z,20.62
2018-07-13T01:44:21.004Z,20.61
2018-07-13T01:45:21.284Z,20.70
2018-07-13T01:46:21.693Z,20.67
2018-07-13T01:47:21.706Z,20.70
2018-07-13T01:48:21.636Z,20.64
2018-07-13T01:49:21.878Z,20.70
2018-07-13T01:50:22.142Z,20.66
2018-07-13T01:51:22.187Z,20.74
2018-07-13T01:52:22.569Z,20.58
2018-07-13T01:53:22.485Z,20.57
2018-07-13T01:54:22.790Z,20.58
2018-07-13T01:55:22.829Z,20.57
2018-07-13T01:56:23.208Z,20.58
2018-07-13T01:57:23.125Z,20.50
2018-07-13T01:58:23.430Z,20.55
2018-07-13T01:59:23.475Z,20.59
2018-07-13T02:00:23.860Z,20.73
2018-07-13T02:01:23.778Z,20.69
2018-07-13T02:02:24.076Z,20.79
2018-07-13T02:03:24.123Z,20.72
2018-07-13T02:04:24.497Z,20.69
2018-07-13T02:05:24.417Z,20.64
2018-07-13T02:06:24.726Z,20.72
2018-07-13T02:07:24.767Z,20.72
2018-07-13T02:08:25.136Z,20.77
2018-07-13T02:09:25.066Z,20.77
2018-07-13T02:10:25.369Z,20.73
2018-07-13T02:11:25.408Z,20.72
2018-07-13T02:12:25.786Z,20.74
2018-07-13T02:13:25.698Z,20.73
2018-07-13T02:14:26.005Z,20.76
2018-07-13T02:15:26.049Z,20.73
2018-07-13T02:16:26.435Z,20.66
2018-07-13T02:17:26.345Z,20.67
2018-07-13T02:18:26.653Z,20.76
2018-07-13T02:19:26.702Z,20.79
2018-07-13T02:20:27.076Z,20.69
2018-07-13T02:21:26.995Z,20.62
2018-07-13T02:22:27.294Z,20.73
2018-07-13T02:23:27.342Z,20.70
2018-07-13T02:24:27.718Z,20.79
2018-07-13T02:25:27.641Z,20.69
2018-07-13T02:26:27.940Z,20.70
2018-07-13T02:27:27.989Z,20.67
2018-07-13T02:28:28.363Z,20.70
2018-07-13T02:29:28.289Z,20.58
2018-07-13T02:30:28.584Z,20.59
2018-07-13T02:31:28.631Z,20.58
2018-07-13T02:32:29.017Z,20.57
2018-07-13T02:33:28.926Z,20.55
2018-07-13T02:34:29.231Z,20.62
2018-07-13T02:35:29.271Z,20.58
2018-07-13T02:36:29.653Z,20.57
2018-07-13T02:37:29.573Z,20.55
2018-07-13T02:38:29.772Z,20.62
2018-07-13T02:39:29.944Z,20.54
2018-07-13T02:40:30.195Z,20.59
2018-07-13T02:41:30.245Z,20.72
2018-07-13T02:42:30.527Z,20.69
2018-07-13T02:43:30.559Z,20.57
2018-07-13T02:44:30.837Z,20.64
2018-07-13T02:45:30.883Z,20.58
2018-07-13T02:46:31.165Z,20.59
2018-07-13T02:47:31.211Z,20.66
2018-07-13T02:48:31.486Z,20.61
2018-07-13T02:49:31.539Z,20.64
2018-07-13T02:50:31.808Z,20.61
2018-07-13T02:51:31.851Z,20.74
2018-07-13T02:52:32.124Z,20.67
2018-07-13T02:53:32.170Z,20.69
2018-07-13T02:54:32.449Z,20.70
2018-07-13T02:55:32.495Z,20.66
2018-07-13T02:56:32.671Z,20.59
2018-07-13T02:57:32.891Z,20.59
2018-07-13T02:58:33.054Z,20.52
2018-07-13T02:59:33.307Z,20.50
2018-07-13T03:00:33.361Z,20.48
2018-07-13T03:01:33.627Z,20.42
2018-07-13T03:02:33.672Z,20.41
2018-07-13T03:03:33.953Z,20.54
2018-07-13T03:04:33.994Z,20.52
2018-07-13T03:05:34.272Z,20.42
2018-07-13T03:06:34.320Z,20.39
2018-07-13T03:07:34.594Z,20.28
2018-07-13T03:08:34.638Z,20.31
2018-07-13T03:09:34.918Z,20.31
2018-07-13T03:10:34.963Z,20.16
2018-07-13T03:11:35.133Z,20.21
2018-07-13T03:12:35.352Z,20.20
2018-07-13T03:13:35.531Z,20.18
2018-07-13T03:14:35.775Z,20.18
2018-07-13T03:15:35.825Z,20.16
2018-07-13T03:16:36.096Z,20.05
2018-07-13T03:17:36.149Z,20.06
2018-07-13T03:18:36.417Z,19.95
2018-07-13T03:19:36.453Z,19.95
2018-07-13T03:20:36.737Z,19.96
2018-07-13T03:21:36.788Z,19.91
2018-07-13T03:22:37.064Z,19.91
2018-07-13T03:23:37.106Z,19.94
2018-07-13T03:24:37.385Z,19.94
2018-07-13T03:25:37.433Z,19.98
2018-07-13T03:26:37.709Z,19.92
2018-07-13T03:27:37.762Z,19.95
2018-07-13T03:28:38.039Z,19.91
2018-07-13T03:29:38.082Z,19.94
2018-07-13T03:30:38.354Z,19.86
2018-07-13T03:31:38.401Z,19.83
2018-07-13T03:32:38.678Z,19.87
2018-07-13T03:33:38.719Z,19.78
2018-07-13T03:34:38.999Z,19.81
2018-07-13T03:35:39.041Z,19.86
2018-07-13T03:36:39.319Z,19.80
2018-07-13T03:37:39.364Z,19.84
2018-07-13T03:38:39.638Z,19.78
2018-07-13T03:39:39.693Z,19.76
2018-07-13T03:40:39.978Z,19.71
2018-07-13T03:41:40.020Z,19.76
2018-07-13T03:42:40.284Z,19.77
2018-07-13T03:43:40.330Z,19.76
2018-07-13T03:44:40.613Z,19.71
2018-07-13T03:45:40.654Z,19.78
2018-07-13T03:46:40.931Z,19.74
2018-07-13T03:47:40.981Z,19.77
2018-07-13T03:48:41.253Z,19.73
2018-07-13T03:49:41.725Z,19.76
2018-07-13T03:50:41.917Z,19.80
2018-07-13T03:51:42.059Z,19.86
2018-07-13T03:52:42.147Z,19.83
2018-07-13T03:53:42.349Z,19.81
2018-07-13T03:54:42.612Z,19.87
2018-07-13T03:55:42.612Z,19.78
2018-07-13T03:56:42.956Z,19.77
2018-07-13T03:57:43.013Z,19.83
2018-07-13T03:58:43.255Z,19.84
2018-07-13T03:59:43.007Z,19.91
2018-07-13T04:00:43.284Z,19.88
2018-07-13T04:01:43.340Z,19.91
2018-07-13T04:02:43.604Z,19.87
2018-07-13T04:03:43.720Z,19.91
2018-07-13T04:04:43.934Z,19.76
2018-07-13T04:05:43.983Z,19.74
2018-07-13T04:06:44.256Z,19.77
2018-07-13T04:07:44.301Z,19.71
2018-07-13T04:08:44.572Z,19.76
2018-07-13T04:09:44.626Z,19.71
2018-07-13T04:10:45.816Z,19.73
2018-07-13T04:11:44.986Z,19.74
2018-07-13T04:12:47.270Z,19.87
2018-07-13T04:13:45.314Z,19.84
2018-07-13T04:14:45.630Z,19.91
2018-07-13T04:15:45.707Z,19.91
2018-07-13T04:16:45.967Z,19.98
2018-07-13T04:17:46.012Z,19.99
2018-07-13T04:18:46.289Z,20.02
2018-07-13T04:19:46.333Z,20.11
2018-07-13T04:20:46.606Z,20.03
2018-07-13T04:21:46.655Z,20.17
2018-07-13T04:22:46.931Z,20.14
2018-07-13T04:23:46.972Z,20.18
2018-07-13T04:24:47.153Z,20.17
2018-07-13T04:25:47.362Z,20.18
2018-07-13T04:26:47.536Z,20.16
2018-07-13T04:27:47.785Z,20.20
2018-07-13T04:28:47.860Z,20.16
2018-07-13T04:29:48.110Z,20.18
2018-07-13T04:30:48.150Z,20.23
2018-07-13T04:31:48.430Z,20.28
2018-07-13T04:32:48.476Z,20.31
2018-07-13T04:33:48.753Z,20.29
2018-07-13T04:34:48.798Z,20.35
2018-07-13T04:35:49.075Z,20.35
2018-07-13T04:36:49.124Z,20.39
2018-07-13T04:37:49.396Z,20.39
2018-07-13T04:38:49.443Z,20.39
2018-07-13T04:39:49.724Z,20.31
2018-07-13T04:40:49.808Z,20.17
2018-07-13T04:41:50.148Z,20.17
2018-07-13T04:42:50.067Z,20.13
2018-07-13T04:43:50.361Z,20.05
2018-07-13T04:44:50.411Z,20.05
2018-07-13T04:45:50.690Z,20.03
2018-07-13T04:46:50.742Z,20.13
2018-07-13T04:47:51.009Z,19.99
2018-07-13T04:48:51.055Z,20.02
2018-07-13T04:49:53.045Z,20.03
2018-07-13T04:50:51.376Z,19.99
2018-07-13T04:51:51.649Z,19.98
2018-07-13T04:52:51.699Z,19.99
2018-07-13T04:53:51.967Z,20.02
2018-07-13T04:54:52.019Z,19.96
2018-07-13T04:55:52.298Z,20.02
2018-07-13T04:56:52.339Z,20.02
2018-07-13T04:57:52.620Z,19.98
2018-07-13T04:58:52.669Z,20.08
2018-07-13T04:59:52.941Z,20.13
2018-07-13T05:00:52.976Z,20.08
2018-07-13T05:01:53.267Z,20.01
2018-07-13T05:02:53.306Z,20.13
2018-07-13T05:03:53.588Z,20.14
2018-07-13T05:04:53.630Z,20.24
2018-07-13T05:05:53.909Z,20.16
2018-07-13T05:06:53.951Z,20.16
2018-07-13T05:07:54.230Z,20.32
2018-07-13T05:08:54.333Z,20.23
2018-07-13T05:09:54.550Z,20.29
2018-07-13T05:10:54.598Z,20.38
2018-07-13T05:11:55.795Z,20.33
2018-07-13T05:12:54.967Z,20.39
2018-07-13T05:13:55.202Z,20.50
2018-07-13T05:14:55.247Z,20.39
2018-07-13T05:15:55.537Z,20.39
2018-07-13T05:16:55.562Z,20.55
2018-07-13T05:17:55.843Z,20.55
2018-07-13T05:18:55.889Z,20.69
2018-07-13T05:19:56.166Z,20.69
2018-07-13T05:20:56.220Z,20.70
2018-07-13T05:21:56.491Z,20.77
2018-07-13T05:22:56.541Z,20.76
2018-07-13T05:23:56.808Z,20.73
2018-07-13T05:24:56.850Z,20.77
2018-07-13T05:25:57.127Z,20.80
2018-07-13T05:26:57.179Z,20.80
2018-07-13T05:27:57.450Z,20.80
2018-07-13T05:28:57.497Z,20.80
2018-07-13T05:29:57.773Z,20.80
2018-07-13T05:30:57.814Z,20.88
2018-07-13T05:31:57.993Z,20.82
2018-07-13T05:32:58.182Z,20.89
2018-07-13T05:33:58.356Z,20.95
2018-07-13T05:34:58.629Z,20.89
2018-07-13T05:35:58.680Z,20.89
2018-07-13T05:36:58.950Z,20.92
2018-07-13T05:37:58.997Z,20.92
2018-07-13T05:38:59.278Z,20.84
2018-07-13T05:39:59.321Z,20.79
2018-07-13T05:40:59.600Z,20.80
2018-07-13T05:42:00.960Z,20.82
2018-07-13T05:42:59.819Z,20.80
2018-07-13T05:43:59.991Z,20.85
2018-07-13T05:45:00.241Z,20.80
2018-07-13T05:46:00.290Z,20.80
2018-07-13T05:47:00.569Z,20.87
2018-07-13T05:48:00.621Z,20.91
2018-07-13T05:49:00.886Z,20.88
2018-07-13T05:50:01.559Z,20.85
2018-07-13T05:51:01.208Z,20.80
2018-07-13T05:52:01.270Z,20.82
2018-07-13T05:53:01.523Z,20.92
2018-07-13T05:54:01.569Z,20.76
2018-07-13T05:55:01.849Z,20.88
2018-07-13T05:56:01.926Z,20.88
2018-07-13T05:57:02.173Z,20.77
2018-07-13T05:58:02.210Z,20.76
2018-07-13T05:59:02.496Z,20.92
2018-07-13T06:00:02.538Z,20.95
2018-07-13T06:01:02.820Z,21.03
2018-07-13T06:02:02.867Z,21.10
2018-07-13T06:03:03.141Z,21.14
2018-07-13T06:04:03.244Z,21.32
2018-07-13T06:05:03.462Z,21.24
2018-07-13T06:06:03.508Z,21.32
2018-07-13T06:07:03.783Z,21.46
2018-07-13T06:08:03.831Z,21.44
2018-07-13T06:09:04.108Z,21.40
2018-07-13T06:10:04.162Z,21.44
2018-07-13T06:11:04.428Z,21.44
2018-07-13T06:12:04.479Z,21.53
2018-07-13T06:13:04.655Z,21.56
2018-07-13T06:14:04.965Z,21.58
2018-07-13T06:15:05.078Z,21.69
2018-07-13T06:16:05.286Z,21.68
2018-07-13T06:17:05.337Z,21.80
2018-07-13T06:18:05.610Z,21.98
2018-07-13T06:19:05.656Z,21.92
2018-07-13T06:20:05.928Z,22.00
2018-07-13T06:21:05.975Z,22.05
2018-07-13T06:22:06.263Z,22.07
2018-07-13T06:23:06.302Z,21.99
2018-07-13T06:24:06.633Z,21.96
2018-07-13T06:25:06.618Z,22.03
2018-07-13T06:26:06.897Z,22.03
2018-07-13T06:27:06.938Z,22.05
2018-07-13T06:28:07.327Z,22.06
2018-07-13T06:29:07.244Z,22.03
2018-07-13T06:30:07.806Z,22.07
2018-07-13T06:31:07.545Z,22.07
2018-07-13T06:32:07.964Z,22.20
2018-07-13T06:33:07.887Z,22.27
2018-07-13T06:34:08.184Z,22.30
2018-07-13T06:35:08.237Z,22.39
2018-07-13T06:36:08.614Z,22.52
2018-07-13T06:37:08.530Z,22.36
2018-07-13T06:38:08.830Z,22.40
2018-07-13T06:39:08.887Z,22.45
2018-07-13T06:40:09.252Z,22.52
2018-07-13T06:41:09.179Z,22.64
2018-07-13T06:42:09.476Z,22.62
2018-07-13T06:43:09.521Z,22.83
2018-07-13T06:44:09.901Z,23.04
2018-07-13T06:45:09.821Z,23.07
2018-07-13T06:46:10.116Z,23.13
2018-07-13T06:47:10.163Z,23.20
2018-07-13T06:48:10.545Z,23.19
2018-07-13T06:49:10.461Z,23.15
2018-07-13T06:50:10.761Z,23.16
2018-07-13T06:51:10.804Z,23.07
2018-07-13T06:52:11.188Z,23.19
2018-07-13T06:53:11.110Z,23.19
2018-07-13T06:54:11.409Z,23.23
2018-07-13T06:55:11.464Z,23.23
2018-07-13T06:56:11.830Z,23.35
2018-07-13T06:57:11.750Z,23.31
2018-07-13T06:58:12.055Z,23.35
2018-07-13T06:59:12.106Z,23.31
2018-07-13T07:00:12.479Z,23.38
2018-07-13T07:01:13.142Z,23.51
2018-07-13T07:02:12.696Z,23.47
2018-07-13T07:03:12.740Z,23.63
2018-07-13T07:04:13.120Z,23.68
2018-07-13T07:05:13.047Z,23.65
2018-07-13T07:06:13.338Z,23.83
2018-07-13T07:07:13.385Z,23.79
2018-07-13T07:08:13.765Z,23.95
2018-07-13T07:09:13.692Z,24.12
2018-07-13T07:10:13.986Z,24.18
2018-07-13T07:11:14.052Z,24.24
2018-07-13T07:12:14.410Z,24.27
2018-07-13T07:13:14.332Z,24.21
2018-07-13T07:14:14.633Z,24.30
2018-07-13T07:15:14.688Z,24.35
2018-07-13T07:16:15.057Z,24.30
2018-07-13T07:17:15.014Z,24.24
2018-07-13T07:18:15.157Z,24.25
2018-07-13T07:19:15.486Z,24.28
2018-07-13T07:20:15.535Z,24.37
2018-07-13T07:21:16.943Z,24.34
2018-07-13T07:22:15.858Z,24.46
2018-07-13T07:23:16.334Z,24.52
2018-07-13T07:24:16.255Z,24.62
2018-07-13T07:25:16.554Z,24.71
2018-07-13T07:26:16.607Z,24.71
2018-07-13T07:27:16.976Z,24.83
2018-07-13T07:28:16.893Z,24.81
2018-07-13T07:29:17.196Z,24.83
2018-07-13T07:30:17.299Z,24.83
2018-07-13T07:31:17.674Z,24.98
2018-07-13T07:32:17.541Z,25.05
2018-07-13T07:33:17.841Z,25.00
2018-07-13T07:34:17.887Z,24.91
2018-07-13T07:35:18.269Z,24.83
2018-07-13T07:36:18.193Z,25.02
2018-07-13T07:37:18.689Z,25.15
2018-07-13T07:38:18.513Z,25.23
2018-07-13T07:39:18.909Z,25.32
2018-07-13T07:40:18.829Z,25.38
2018-07-13T07:41:19.334Z,25.24
2018-07-13T07:42:19.138Z,25.28
2018-07-13T07:43:19.557Z,25.21
2018-07-13T07:44:19.477Z,25.13
2018-07-13T07:45:19.778Z,25.28
2018-07-13T07:46:19.819Z,25.27
2018-07-13T07:47:20.100Z,25.28
2018-07-13T07:48:20.148Z,25.18
2018-07-13T07:49:20.519Z,25.15
2018-07-13T07:50:20.443Z,25.13
2018-07-13T07:51:20.740Z,25.17
2018-07-13T07:52:20.788Z,25.27
2018-07-13T07:53:21.164Z,25.20
2018-07-13T07:54:21.092Z,25.21
2018-07-13T07:55:21.391Z,25.21
2018-07-13T07:56:21.442Z,25.35
2018-07-13T07:57:21.814Z,25.39
2018-07-13T07:58:21.754Z,25.42
2018-07-13T07:59:22.027Z,25.36
2018-07-13T08:00:22.107Z,25.61
2018-07-13T08:01:22.454Z,25.60
2018-07-13T08:02:22.393Z,25.80
2018-07-13T08:03:22.675Z,25.80
2018-07-13T08:04:22.731Z,25.79
2018-07-13T08:05:23.102Z,25.90
2018-07-13T08:06:23.097Z,26.06
2018-07-13T08:07:23.366Z,26.06
2018-07-13T08:08:23.371Z,26.05
2018-07-13T08:09:23.739Z,26.01
2018-07-13T08:10:23.665Z,26.13
2018-07-13T08:11:23.964Z,26.15
2018-07-13T08:12:24.017Z,26.17
2018-07-13T08:13:24.428Z,26.07
2018-07-13T08:14:24.327Z,26.06
2018-07-13T08:15:24.606Z,26.05
2018-07-13T08:16:24.660Z,26.06
2018-07-13T08:17:24.931Z,26.07
2018-07-13T08:18:24.985Z,26.26
2018-07-13T08:19:25.252Z,26.32
2018-07-13T08:20:25.302Z,26.43
2018-07-13T08:21:25.574Z,26.51
2018-07-13T08:22:25.618Z,26.63
2018-07-13T08:23:25.894Z,26.67
2018-07-13T08:24:25.947Z,26.70
2018-07-13T08:25:26.317Z,26.87
2018-07-13T08:26:26.254Z,26.91
2018-07-13T08:27:26.540Z,26.72
2018-07-13T08:28:26.595Z,26.67
2018-07-13T08:29:26.966Z,26.75
2018-07-13T08:30:26.893Z,26.80
2018-07-13T08:31:28.096Z,26.91
2018-07-13T08:32:27.227Z,26.94
2018-07-13T08:33:27.576Z,27.10
2018-07-13T08:34:27.627Z,27.10
2018-07-13T08:35:28.033Z,27.34
2018-07-13T08:36:27.953Z,27.41
2018-07-13T08:37:28.261Z,27.29
2018-07-13T08:38:28.308Z,27.46
2018-07-13T08:39:28.677Z,27.51
2018-07-13T08:40:28.597Z,27.49
2018-07-13T08:41:28.896Z,27.67
2018-07-13T08:42:28.952Z,27.77
2018-07-13T08:43:29.324Z,27.90
2018-07-13T08:44:29.232Z,27.75
2018-07-13T08:45:29.538Z,27.88
2018-07-13T08:46:29.584Z,27.85
2018-07-13T08:47:29.962Z,27.99
2018-07-13T08:48:29.881Z,28.18
2018-07-13T08:49:30.186Z,28.17
2018-07-13T08:50:30.233Z,28.29
2018-07-13T08:51:30.712Z,28.33
2018-07-13T08:52:30.573Z,28.33
2018-07-13T08:53:30.828Z,28.29
2018-07-13T08:54:30.875Z,28.48
2018-07-13T08:55:31.248Z,28.46
2018-07-13T08:56:31.170Z,28.55
2018-07-13T08:57:31.485Z,28.64
2018-07-13T08:58:31.538Z,28.70
2018-07-13T08:59:31.794Z,28.78
2018-07-13T09:00:31.848Z,28.90
2018-07-13T09:01:32.173Z,28.96
2018-07-13T09:02:32.166Z,28.90
2018-07-13T09:03:32.436Z,28.93
2018-07-13T09:04:32.624Z,29.05
2018-07-13T09:05:32.760Z,29.06
2018-07-13T09:06:32.828Z,29.11
2018-07-13T09:07:33.224Z,29.16
2018-07-13T09:08:33.107Z,29.28
2018-07-13T09:09:33.404Z,29.42
2018-07-13T09:10:33.456Z,29.52
2018-07-13T09:11:33.834Z,29.83
2018-07-13T09:12:33.762Z,29.86
2018-07-13T09:13:34.048Z,29.98
2018-07-13T09:14:34.099Z,30.08
2018-07-13T09:15:34.475Z,30.17
2018-07-13T09:16:34.405Z,30.42
2018-07-13T09:17:34.696Z,30.61
2018-07-13T09:18:34.751Z,30.55
2018-07-13T09:19:35.114Z,30.61
2018-07-13T09:20:35.042Z,30.79
2018-07-13T09:21:35.516Z,30.92
2018-07-13T09:22:35.443Z,31.19
2018-07-13T09:23:35.768Z,31.41
2018-07-13T09:24:35.826Z,31.69
2018-07-13T09:25:36.190Z,32.14
2018-07-13T09:26:36.243Z,32.97
2018-07-13T09:27:36.508Z,33.87
2018-07-13T09:28:36.565Z,35.02
2018-07-13T09:29:36.837Z,36.29
2018-07-13T09:30:36.886Z,37.36
2018-07-13T09:31:37.156Z,38.19
2018-07-13T09:32:37.208Z,38.96
2018-07-13T09:33:37.502Z,39.47
2018-07-13T09:34:37.529Z,39.17
2018-07-13T09:35:37.909Z,39.72
2018-07-13T09:38:11.984Z,41.25
2018-07-13T09:39:12.161Z,41.47
2018-07-13T09:40:12.346Z,41.54
2018-07-13T09:41:12.527Z,41.78
2018-07-13T09:42:12.702Z,41.87
2018-07-13T09:43:12.882Z,42.20
2018-07-13T09:44:13.066Z,42.70
2018-07-13T09:45:13.245Z,42.99
2018-07-13T09:46:13.426Z,43.25
2018-07-13T09:47:13.611Z,43.03
2018-07-13T09:48:13.794Z,43.27
2018-07-13T09:49:13.976Z,42.99
2018-07-13T09:50:14.169Z,43.07
2018-07-13T09:51:14.353Z,43.34
2018-07-13T09:52:14.538Z,43.38
2018-07-13T09:53:14.725Z,43.78
2018-07-13T09:54:14.995Z,43.95
2018-07-13T09:55:15.090Z,43.84
2018-07-13T09:56:15.286Z,43.17
2018-07-13T09:57:15.473Z,43.47
2018-07-13T09:58:15.663Z,43.88
2018-07-13T09:59:15.842Z,44.26
2018-07-13T10:00:16.027Z,44.67
2018-07-13T10:01:16.218Z,44.95
2018-07-13T10:02:16.403Z,45.02
2018-07-13T10:03:16.596Z,45.10
2018-07-13T10:04:16.769Z,45.00
2018-07-13T10:05:16.960Z,44.85
2018-07-13T10:06:17.168Z,45.10
2018-07-13T10:07:17.341Z,45.21
2018-07-13T10:08:17.537Z,45.57
2018-07-13T10:09:17.728Z,45.67
2018-07-13T10:10:17.919Z,45.81
2018-07-13T10:11:18.105Z,45.85
2018-07-13T10:12:18.290Z,45.81
2018-07-13T10:13:18.489Z,45.74
2018-07-13T10:14:18.665Z,45.96
2018-07-13T10:15:18.858Z,46.08
2018-07-13T10:16:19.048Z,45.76
2018-07-13T10:17:19.244Z,45.99
2018-07-13T10:18:19.442Z,46.12
2018-07-13T10:19:19.620Z,46.49
2018-07-13T10:20:19.804Z,46.49
2018-07-13T10:21:20.003Z,46.50
2018-07-13T10:22:20.188Z,46.05
2018-07-13T10:23:20.397Z,45.85
2018-07-13T10:24:20.580Z,45.55
2018-07-13T10:25:20.769Z,44.51
2018-07-13T10:26:20.969Z,45.43
2018-07-13T10:27:21.156Z,45.67
2018-07-13T10:28:21.344Z,46.31
2018-07-13T10:29:21.536Z,45.86
2018-07-13T10:30:21.730Z,45.96
2018-07-13T10:31:21.942Z,46.14
2018-07-13T10:32:22.137Z,46.54
2018-07-13T10:33:22.336Z,46.28
2018-07-13T10:34:22.527Z,45.47
2018-07-13T10:35:22.776Z,45.79
2018-07-13T10:36:22.922Z,46.16
2018-07-13T10:37:23.108Z,46.65
2018-07-13T10:38:23.305Z,46.80
2018-07-13T10:39:24.444Z,47.19
2018-07-13T10:40:23.682Z,47.38
2018-07-13T10:41:23.868Z,47.40
2018-07-13T10:42:24.430Z,47.36
2018-07-13T10:43:24.239Z,47.19
2018-07-13T10:44:24.439Z,47.28
2018-07-13T10:45:24.635Z,47.07
2018-07-13T10:46:24.822Z,47.00
2018-07-13T10:47:25.012Z,47.41
2018-07-13T10:48:25.206Z,47.91
2018-07-13T10:49:25.414Z,48.17
2018-07-13T10:50:25.649Z,48.30
2018-07-13T10:51:25.795Z,48.69
2018-07-13T10:52:25.993Z,49.09
2018-07-13T10:53:26.187Z,49.39
2018-07-13T10:54:26.403Z,49.56
2018-07-13T10:55:26.582Z,49.59
2018-07-13T10:56:26.786Z,49.27
2018-07-13T10:57:26.984Z,49.44
2018-07-13T10:58:28.013Z,49.12
2018-07-13T10:59:27.363Z,49.10
2018-07-13T11:00:27.562Z,48.66
2018-07-13T11:01:27.753Z,48.82
2018-07-13T11:03:21.070Z,48.96
2018-07-13T11:04:21.267Z,48.60
2018-07-13T11:05:21.463Z,49.08
2018-07-13T11:06:21.738Z,49.32
2018-07-13T11:07:22.010Z,48.63
2018-07-13T11:08:22.144Z,48.42
2018-07-13T11:09:22.331Z,48.33
2018-07-13T11:10:22.699Z,47.58
2018-07-13T11:11:22.941Z,46.43
2018-07-13T11:12:23.169Z,47.22
2018-07-13T11:13:23.197Z,47.73
2018-07-13T11:14:23.404Z,48.20
2018-07-13T11:15:23.598Z,48.49
2018-07-13T11:16:23.787Z,48.57
2018-07-13T11:17:23.980Z,48.49
2018-07-13T11:18:24.176Z,48.60
2018-07-13T11:19:24.370Z,47.94
2018-07-13T11:20:24.566Z,46.99
2018-07-13T11:21:24.758Z,47.61
2018-07-13T11:22:24.965Z,47.87
2018-07-13T11:23:25.145Z,48.20
2018-07-13T11:24:25.361Z,48.07
2018-07-13T11:25:25.525Z,48.10
2018-07-13T11:26:25.731Z,48.14
2018-07-13T11:27:25.931Z,48.29
2018-07-13T11:28:26.129Z,48.20
2018-07-13T11:29:26.328Z,48.30
2018-07-13T11:30:26.554Z,48.37
2018-07-13T11:31:26.758Z,48.55
2018-07-13T11:32:27.667Z,48.51
2018-07-13T11:33:27.180Z,46.45
2018-07-13T11:34:27.328Z,47.14
2018-07-13T11:35:27.533Z,47.76
2018-07-13T11:36:27.731Z,47.90
2018-07-13T11:37:27.996Z,48.02
2018-07-13T11:38:28.156Z,48.42
2018-07-13T11:39:28.489Z,48.06
2018-07-13T11:40:28.576Z,47.15
2018-07-13T11:41:28.763Z,45.17
2018-07-13T11:42:28.968Z,44.56
2018-07-13T11:43:29.160Z,45.36
2018-07-13T11:44:29.534Z,46.05
2018-07-13T11:45:29.572Z,46.81
2018-07-13T11:46:29.782Z,47.09
2018-07-13T11:47:29.974Z,47.45
2018-07-13T11:48:30.186Z,47.66
2018-07-13T11:49:30.378Z,47.76
2018-07-13T11:50:30.591Z,47.90
2018-07-13T11:51:30.789Z,47.43
2018-07-13T11:52:30.986Z,47.34
2018-07-13T11:53:31.315Z,46.04
2018-07-13T11:54:31.320Z,45.47
2018-07-13T11:55:31.522Z,45.35
2018-07-13T11:56:31.802Z,46.52
2018-07-13T11:57:31.915Z,46.18
2018-07-13T11:58:32.114Z,46.18
2018-07-13T11:59:32.315Z,45.80
2018-07-13T12:00:32.522Z,46.16
2018-07-13T12:01:32.705Z,45.69
2018-07-13T12:02:32.906Z,45.38
2018-07-13T12:03:33.096Z,45.57
2018-07-13T12:04:33.290Z,45.42
2018-07-13T12:05:33.490Z,44.21
2018-07-13T12:06:33.685Z,43.31
2018-07-13T12:07:33.958Z,43.03
2018-07-13T12:08:34.082Z,42.16
2018-07-13T12:09:34.329Z,41.57
2018-07-13T12:10:35.038Z,40.96
2018-07-13T12:11:34.729Z,40.38
2018-07-13T12:12:34.987Z,40.16
2018-07-13T12:13:35.133Z,39.88
2018-07-13T12:14:35.322Z,41.83
2018-07-13T12:15:35.509Z,41.36
2018-07-13T12:16:35.740Z,40.83
2018-07-13T12:17:35.902Z,40.27
2018-07-13T12:18:36.082Z,40.13
2018-07-13T12:19:36.279Z,39.81
2018-07-13T12:20:36.467Z,40.39
2018-07-13T12:21:36.657Z,42.49
2018-07-13T12:22:36.864Z,43.40
2018-07-13T12:23:37.054Z,44.03
2018-07-13T12:24:37.242Z,44.46
2018-07-13T12:25:37.427Z,45.29
2018-07-13T12:26:37.620Z,45.69
2018-07-13T12:27:37.819Z,46.40
2018-07-13T12:28:38.023Z,45.70
2018-07-13T12:29:38.194Z,44.10
2018-07-13T12:30:38.392Z,42.46
2018-07-13T12:31:38.586Z,42.08
2018-07-13T12:32:39.068Z,41.73
2018-07-13T12:33:38.970Z,41.74
2018-07-13T12:34:39.162Z,40.99
2018-07-13T12:35:39.357Z,40.04
2018-07-13T12:36:39.556Z,39.41
2018-07-13T12:37:39.743Z,39.25
2018-07-13T12:38:39.940Z,39.17
2018-07-13T12:39:40.225Z,38.83
2018-07-13T12:40:40.318Z,38.69
2018-07-13T12:41:40.508Z,38.60
2018-07-13T12:42:40.708Z,38.74
2018-07-13T12:43:40.889Z,38.49
2018-07-13T12:44:41.075Z,38.50
2018-07-13T12:45:41.261Z,38.60
2018-07-13T12:46:41.450Z,38.32
2018-07-13T12:47:41.634Z,38.03
2018-07-13T12:48:41.828Z,38.09
2018-07-13T12:49:42.009Z,38.90
2018-07-13T12:50:42.217Z,38.96
2018-07-13T12:51:42.403Z,39.25
2018-07-13T12:52:42.591Z,39.03
2018-07-13T12:53:42.774Z,38.76
2018-07-13T12:54:42.984Z,38.41
2018-07-13T12:55:43.149Z,38.50
2018-07-13T12:56:43.341Z,38.61